createdAt,value
2022-11-05T00:04:28.188Z,19.08
2022-11-05T00:09:33.632Z,19.48
2022-11-05T00:14:53.754Z,21.55
2022-11-05T00:19:56.972Z,20.92
2022-11-05T00:25:14.104Z,20.40
2022-11-05T00:30:19.377Z,22.02
2022-11-05T00:35:22.532Z,21.58
2022-11-05T00:40:24.205Z,21.25
2022-11-05T00:45:25.974Z,19.67
2022-11-05T00:50:28.224Z,20.75
2022-11-05T00:55:39.897Z,22.27
2022-11-05T01:00:48.719Z,22.45
2022-11-05T01:05:56.189Z,22.45
2022-11-05T01:10:58.855Z,21.15
2022-11-05T01:16:05.997Z,20.98
2022-11-05T01:21:16.718Z,21.85
2022-11-05T01:26:18.361Z,20.98
2022-11-05T01:31:20.510Z,21.45
2022-11-05T01:36:22.151Z,22.17
2022-11-05T01:41:23.853Z,21.40
2022-11-05T01:46:29.614Z,19.73
2022-11-05T01:51:31.474Z,16.05
2022-11-05T01:56:38.107Z,14.35
2022-11-05T02:01:39.728Z,15.02
2022-11-05T02:06:48.129Z,15.57
2022-11-05T02:11:51.466Z,17.20
2022-11-05T02:17:01.361Z,18.40
2022-11-05T02:22:21.306Z,17.17
2022-11-05T02:27:44.097Z,18.13
2022-11-05T02:33:11.097Z,18.00
2022-11-05T02:38:29.702Z,16.05
2022-11-05T02:43:41.899Z,17.38
2022-11-05T02:49:10.728Z,15.73
2022-11-05T02:54:14.964Z,16.45
2022-11-05T02:59:16.490Z,15.40
2022-11-05T03:04:21.307Z,14.50
2022-11-05T03:09:54.760Z,14.77
2022-11-05T03:15:12.266Z,14.70
2022-11-05T03:20:20.064Z,14.07
2022-11-05T03:25:24.328Z,15.57
2022-11-05T03:30:26.662Z,19.27
2022-11-05T03:35:34.360Z,23.02
2022-11-05T03:40:38.750Z,26.27
2022-11-05T03:46:06.559Z,28.13
2022-11-05T03:51:32.073Z,27.85
2022-11-05T03:56:42.602Z,27.25
2022-11-05T04:01:44.346Z,27.00
2022-11-05T04:07:04.513Z,28.02
2022-11-05T04:12:25.020Z,29.35
2022-11-05T04:17:26.625Z,26.08
2022-11-05T04:22:50.319Z,26.27
2022-11-05T04:27:51.912Z,26.83
2022-11-05T04:33:14.583Z,27.65
2022-11-05T04:38:18.715Z,28.02
2022-11-05T04:43:20.419Z,27.00
2022-11-05T04:48:22.260Z,27.50
2022-11-05T04:53:23.803Z,26.90
2022-11-05T04:58:25.491Z,25.83
2022-11-05T05:03:27.008Z,25.85
2022-11-05T05:08:28.656Z,25.17
2022-11-05T05:13:30.382Z,25.42
2022-11-05T05:18:31.931Z,23.65
2022-11-05T05:23:33.443Z,22.70
2022-11-05T05:28:35.009Z,22.95
2022-11-05T05:33:36.666Z,21.63
2022-11-05T05:38:38.295Z,22.40
2022-11-05T05:43:39.880Z,22.33
2022-11-05T05:48:42.395Z,22.98
2022-11-05T05:53:44.340Z,21.67
2022-11-05T05:58:46.814Z,24.00
2022-11-05T06:03:48.883Z,22.33
2022-11-05T06:08:50.453Z,22.45
2022-11-05T06:13:52.070Z,22.55
2022-11-05T06:18:53.552Z,21.83
2022-11-05T06:23:55.102Z,22.20
2022-11-05T06:28:56.970Z,21.45
2022-11-05T06:33:58.510Z,22.23
2022-11-05T06:39:00.058Z,34.60
2022-11-05T06:44:01.637Z,21.75
2022-11-05T06:49:03.241Z,22.15
2022-11-05T06:54:05.210Z,23.15
2022-11-05T06:59:08.492Z,22.25
2022-11-05T07:04:12.234Z,22.48
2022-11-05T07:09:13.810Z,22.45
2022-11-05T07:14:15.350Z,20.20
2022-11-05T07:19:16.920Z,21.77
2022-11-05T07:24:18.503Z,20.30
2022-11-05T07:29:20.066Z,20.30
2022-11-05T07:34:21.673Z,20.85
2022-11-05T07:39:23.357Z,20.90
2022-11-05T07:44:24.935Z,22.00
2022-11-05T07:49:26.443Z,20.23
2022-11-05T07:54:28.066Z,22.35
2022-11-05T07:59:29.613Z,21.15
2022-11-05T08:04:31.251Z,20.05
2022-11-05T08:09:32.776Z,18.73
2022-11-05T08:14:34.366Z,17.33
2022-11-05T08:19:35.930Z,16.45
2022-11-05T08:24:37.500Z,14.82
2022-11-05T08:29:39.043Z,14.70
2022-11-05T08:34:40.662Z,15.02
2022-11-05T08:39:42.256Z,16.17
2022-11-05T08:44:44.199Z,16.60
2022-11-05T08:49:45.945Z,15.38
2022-11-05T08:54:47.767Z,14.93
2022-11-05T08:59:49.380Z,13.63
2022-11-05T09:04:51.032Z,13.45
2022-11-05T09:09:52.745Z,14.48
2022-11-05T09:14:54.491Z,14.73
2022-11-05T09:19:56.115Z,13.52
2022-11-05T09:24:57.837Z,12.93
2022-11-05T09:29:59.483Z,12.35
2022-11-05T09:35:01.571Z,10.45
2022-11-05T09:40:03.601Z,10.95
2022-11-05T09:45:10.581Z,8.65
2022-11-05T09:55:35.415Z,9.40
2022-11-05T10:00:37.389Z,10.32
2022-11-05T10:05:40.498Z,9.35
2022-11-05T10:10:46.219Z,7.93
2022-11-05T10:15:57.670Z,6.97
2022-11-05T10:20:59.442Z,6.93
2022-11-05T10:26:09.153Z,6.43
2022-11-05T10:31:14.761Z,6.15
2022-11-05T10:36:29.279Z,6.05
2022-11-05T10:41:52.683Z,5.03
2022-11-05T10:47:24.804Z,5.10
2022-11-05T10:52:35.246Z,3.22
2022-11-05T10:57:39.664Z,2.97
2022-11-05T11:02:50.082Z,2.67
2022-11-05T11:07:55.962Z,3.38
2022-11-05T11:12:59.052Z,5.10
2022-11-05T11:18:25.143Z,4.10
2022-11-05T11:23:27.937Z,2.58
2022-11-05T11:28:37.359Z,2.20
2022-11-05T11:33:43.130Z,2.58
2022-11-05T11:38:45.188Z,2.92
2022-11-05T11:43:47.048Z,2.42
2022-11-05T11:48:49.577Z,4.70
2022-11-05T11:53:57.511Z,2.83
2022-11-05T11:59:15.562Z,2.60
2022-11-05T12:04:39.020Z,2.75
2022-11-05T12:10:13.016Z,2.50
2022-11-05T12:15:39.219Z,1.60
2022-11-05T12:20:57.830Z,2.13
2022-11-05T12:26:33.064Z,1.70
2022-11-05T12:31:45.147Z,1.73
2022-11-05T12:37:16.970Z,2.78
2022-11-05T12:42:33.831Z,1.45
2022-11-05T12:52:56.853Z,2.03
2022-11-05T12:58:12.985Z,2.42
2022-11-05T13:03:22.060Z,2.17
2022-11-05T13:08:39.246Z,2.03
2022-11-05T13:13:53.949Z,2.30
2022-11-05T13:19:05.347Z,1.70
2022-11-05T13:24:22.784Z,1.48
2022-11-05T13:29:27.284Z,1.42
2022-11-05T13:34:33.452Z,1.45
2022-11-05T13:39:43.685Z,1.60
2022-11-05T13:45:00.971Z,2.13
2022-11-05T13:50:41.048Z,2.13
2022-11-05T13:56:01.433Z,1.83
2022-11-05T14:01:09.040Z,1.48
2022-11-05T14:06:10.975Z,2.00
2022-11-05T14:11:27.467Z,1.80
2022-11-05T14:16:47.647Z,2.05
2022-11-05T14:21:51.564Z,1.33
2022-11-05T14:27:02.424Z,1.10
2022-11-05T14:32:19.365Z,1.25
2022-11-05T14:42:27.434Z,1.70
2022-11-05T14:47:33.038Z,1.48
2022-11-05T14:52:35.738Z,1.23
2022-11-05T14:57:43.488Z,2.00
2022-11-05T15:02:57.851Z,1.40
2022-11-05T15:08:20.056Z,1.80
2022-11-05T15:13:32.794Z,2.22
2022-11-05T15:18:45.082Z,2.45
2022-11-05T15:23:48.788Z,2.35
2022-11-05T15:28:52.534Z,2.50
2022-11-05T15:34:18.969Z,2.65
2022-11-05T15:39:40.292Z,3.15
2022-11-05T15:44:48.075Z,3.05
2022-11-05T15:50:09.955Z,3.35
2022-11-05T15:55:14.926Z,3.80
2022-11-05T16:00:28.363Z,5.20
2022-11-05T16:05:42.076Z,6.85
2022-11-05T16:10:48.916Z,5.80
2022-11-05T16:15:59.193Z,6.80
2022-11-05T16:21:08.134Z,7.35
2022-11-05T16:32:00.965Z,9.82
2022-11-05T16:37:04.528Z,8.65
2022-11-05T16:42:36.578Z,6.22
2022-11-05T16:47:38.378Z,5.00
2022-11-05T16:52:40.025Z,5.30
2022-11-05T16:57:44.395Z,5.32
2022-11-05T17:02:46.820Z,6.32
2022-11-05T17:07:48.691Z,6.32
2022-11-05T17:12:50.936Z,7.28
2022-11-05T17:17:55.667Z,6.97
2022-11-05T17:22:58.125Z,8.13
2022-11-05T17:27:59.916Z,8.45
2022-11-05T17:33:02.113Z,7.95
2022-11-05T17:38:03.809Z,7.68
2022-11-05T17:43:09.710Z,6.85
2022-11-05T17:48:12.204Z,8.23
2022-11-05T17:53:16.149Z,6.15
2022-11-05T17:58:17.754Z,7.80
2022-11-05T18:03:19.537Z,7.70
2022-11-05T18:08:21.105Z,6.60
2022-11-05T18:13:22.764Z,9.40
2022-11-05T18:18:24.306Z,16.40
2022-11-05T18:23:26.205Z,19.17
2022-11-05T18:28:29.954Z,20.77
2022-11-05T18:33:31.731Z,32.20
2022-11-05T18:38:33.260Z,24.23
2022-11-05T18:43:34.865Z,21.15
2022-11-05T18:48:36.894Z,19.23
2022-11-05T18:53:39.310Z,19.00
2022-11-05T18:58:41.273Z,17.38
2022-11-05T19:03:42.881Z,16.83
2022-11-05T19:08:44.857Z,21.23
2022-11-05T19:13:46.724Z,19.48
2022-11-05T19:18:48.867Z,15.95
2022-11-05T19:23:51.084Z,15.90
2022-11-05T19:28:52.746Z,13.30
2022-11-05T19:33:55.286Z,11.70
2022-11-05T19:38:59.154Z,12.80
2022-11-05T19:44:03.569Z,11.13
2022-11-05T19:49:05.306Z,12.45
2022-11-05T19:54:08.993Z,12.55
2022-11-05T19:59:11.583Z,12.13
2022-11-05T20:04:15.811Z,13.50
2022-11-05T20:09:22.224Z,12.55
2022-11-05T20:19:26.740Z,18.73
2022-11-05T20:24:28.805Z,13.95
2022-11-05T20:29:35.221Z,13.27
2022-11-05T20:34:37.614Z,20.65
2022-11-05T20:39:39.284Z,29.80
2022-11-05T20:44:41.447Z,33.30
2022-11-05T20:49:43.372Z,34.10
2022-11-05T20:54:45.860Z,33.88
2022-11-05T20:59:47.360Z,34.35
2022-11-05T21:04:49.224Z,34.65
2022-11-05T21:09:50.902Z,33.03
2022-11-05T21:14:53.050Z,29.90
2022-11-05T21:19:54.565Z,28.65
2022-11-05T21:24:56.852Z,29.52
2022-11-05T21:29:58.350Z,28.52
2022-11-05T21:34:59.940Z,28.45
2022-11-05T21:40:01.503Z,26.13
2022-11-05T21:45:03.193Z,24.70
2022-11-05T21:50:05.289Z,27.27
2022-11-05T21:55:26.218Z,24.80
2022-11-05T22:00:27.697Z,23.58
2022-11-05T22:05:32.823Z,22.13
2022-11-05T22:10:34.445Z,20.55
2022-11-05T22:15:36.003Z,19.20
2022-11-05T22:20:39.561Z,19.77
2022-11-05T22:25:41.105Z,18.83
2022-11-05T22:30:42.593Z,19.00
2022-11-05T22:35:44.109Z,18.20
2022-11-05T22:40:45.644Z,17.35
2022-11-05T22:45:47.212Z,17.58
2022-11-05T22:50:48.757Z,17.33
2022-11-05T22:55:50.372Z,16.90
2022-11-05T23:00:51.960Z,17.25
2022-11-05T23:06:05.948Z,17.55
2022-11-05T23:11:38.370Z,15.52
2022-11-05T23:17:00.263Z,14.95
2022-11-05T23:22:20.810Z,18.50
2022-11-05T23:27:22.468Z,15.48
2022-11-05T23:32:24.087Z,14.02
2022-11-05T23:37:46.562Z,14.32
2022-11-05T23:43:07.293Z,13.90
2022-11-05T23:48:32.802Z,12.90
2022-11-05T23:53:36.544Z,14.30
2022-11-05T23:58:39.110Z,13.60
